sensor_id;sensor_type;location;lat;lon;timestamp;pressure;altitude;pressure_sealevel;temperature;humidity
45939;BME280;31650;48.818;9.116;2023-02-04T08:30:38;99660.19;;;4.77;100.00
45939;BME280;31650;48.818;9.116;2023-02-04T08:45:39;99666.41;;;5.06;100.00
45939;BME280;31650;48.818;9.116;2023-02-04T09:00:40;99692.84;;;6.07;100.00
45939;BME280;31650;48.818;9.116;2023-02-04T09:15:40;99687.28;;;5.71;100.00
45939;BME280;31650;48.818;9.116;2023-02-04T09:30:41;99700.91;;;6.16;100.00
45939;BME280;31650;48.818;9.116;2023-02-04T09:45:41;99698.84;;;6.92;100.00
45939;BME280;31650;48.818;9.116;2023-02-04T10:00:42;99711.31;;;6.11;100.00
45939;BME280;31650;48.818;9.116;2023-02-04T10:15:43;99700.50;;;6.39;96.94
45939;BME280;31650;48.818;9.116;2023-02-04T10:30:43;99697.91;;;6.65;87.11
45939;BME280;31650;48.818;9.116;2023-02-04T10:45:47;99693.66;;;7.16;85.19
45939;BME280;31650;48.818;9.116;2023-02-04T11:00:47;99693.50;;;6.46;91.04
45939;BME280;31650;48.818;9.116;2023-02-04T11:15:48;99712.50;;;6.27;93.28
45939;BME280;31650;48.818;9.116;2023-02-04T11:30:59;99694.00;;;6.77;88.33
45939;BME280;31650;48.818;9.116;2023-02-04T11:46:04;99702.84;;;7.41;86.25
45939;BME280;31650;48.818;9.116;2023-02-04T12:01:19;99700.78;;;7.61;81.67
45939;BME280;31650;48.818;9.116;2023-02-04T12:16:20;99700.56;;;7.81;74.08
45939;BME280;31650;48.818;9.116;2023-02-04T12:31:20;99702.44;;;7.80;70.40
45939;BME280;31650;48.818;9.116;2023-02-04T12:46:20;99700.09;;;7.85;73.71
45939;BME280;31650;48.818;9.116;2023-02-04T13:01:21;99712.19;;;7.47;74.03
45939;BME280;31650;48.818;9.116;2023-02-04T13:16:21;99719.78;;;6.72;81.15
45939;BME280;31650;48.818;9.116;2023-02-04T13:31:23;99714.47;;;7.34;81.84
45939;BME280;31650;48.818;9.116;2023-02-04T13:46:23;99729.31;;;6.94;76.80
45939;BME280;31650;48.818;9.116;2023-02-04T14:01:24;99751.72;;;6.58;80.10
45939;BME280;31650;48.818;9.116;2023-02-04T14:16:24;99746.59;;;6.37;82.55
45939;BME280;31650;48.818;9.116;2023-02-04T14:31:24;99744.16;;;6.34;81.26
45939;BME280;31650;48.818;9.116;2023-02-04T14:46:24;99756.28;;;6.30;81.79
45939;BME280;31650;48.818;9.116;2023-02-04T15:01:25;99765.50;;;5.81;81.51
45939;BME280;31650;48.818;9.116;2023-02-04T15:16:26;99776.09;;;5.35;80.11
45939;BME280;31650;48.818;9.116;2023-02-04T15:31:26;99775.78;;;5.19;81.37
45939;BME280;31650;48.818;9.116;2023-02-04T15:46:26;99797.94;;;5.12;78.40
45939;BME280;31650;48.818;9.116;2023-02-04T16:01:27;99797.16;;;4.72;81.22
45939;BME280;31650;48.818;9.116;2023-02-04T16:16:27;99811.00;;;3.96;90.24
45939;BME280;31650;48.818;9.116;2023-02-04T16:31:27;99829.28;;;3.39;100.00
45939;BME280;31650;48.818;9.116;2023-02-04T16:46:27;99859.03;;;2.94;100.00
45939;BME280;31650;48.818;9.116;2023-02-04T17:01:29;99878.56;;;2.17;100.00
45939;BME280;31650;48.818;9.116;2023-02-04T17:16:29;99893.41;;;1.99;100.00
45939;BME280;31650;48.818;9.116;2023-02-04T17:31:29;99909.25;;;1.90;100.00
45939;BME280;31650;48.818;9.116;2023-02-04T17:46:30;99918.97;;;1.32;100.00
45939;BME280;31650;48.818;9.116;2023-02-04T18:01:30;99938.53;;;1.21;100.00
45939;BME280;31650;48.818;9.116;2023-02-04T18:16:30;99928.81;;;1.44;100.00
45939;BME280;31650;48.818;9.116;2023-02-04T18:31:34;99928.59;;;0.61;100.00
45939;BME280;31650;48.818;9.116;2023-02-04T18:46:35;99934.69;;;-0.01;100.00
45939;BME280;31650;48.818;9.116;2023-02-04T19:01:36;99937.97;;;-0.10;100.00
45939;BME280;31650;48.818;9.116;2023-02-04T19:16:37;99948.41;;;0.33;100.00
45939;BME280;31650;48.818;9.116;2023-02-04T19:31:40;99948.19;;;0.61;100.00
45939;BME280;31650;48.818;9.116;2023-02-04T19:46:40;99940.94;;;1.00;100.00
45939;BME280;31650;48.818;9.116;2023-02-04T20:01:41;99948.41;;;1.21;100.00
